Ana Sayfa
METAR-TAF:

METAR-TAF

Havaalanları :

Ann Arbor, Michigan, Amerika Birleşik Devletleri

Enlem: 42-13-26N, Boylam: 083-44-24W, yükseklik: 255 m

Güncel hava durumu gözlemi

Rapor saat 14:53 UTC de 1 saat ve 3 dakika önce yapıldı.
Rüzgar batıdan 7 kt
Sıcaklık 27°C
Nem 74%
Basınç 1014 hPa
Görüş mesafesi: 14.5 km
Açık gökyüzü

METAR: KARB 211453Z 28007KT 9SM CLR 27/22 A2993 RMK AO2 SLP130 T02670217 53007

Saat: 11:56 (15:56 UTC)


TAF: eksik

4.000'den fazla havaalanı için hava durumu gözlemleri ve tahminleri (METAR ve TAF raporları).

Kullanılabilir istasyonlar harita üzerinde sarı ve kırmızı noktalarla gösterilir.

İstasyonun adını görmek için fareyi noktanın üzerinde gezdirin.

Sonrasında hava gözlem ve tahminlerini görmek için tıklayın.

Haritayı değiştirmek için: yaklaştırmak için siyah artı işaretli yeşil düğmeye ve uzaklaştırmak için de eksi işaretli düğmeye hızla tıklayın; bitişik haritalar için yeşil okları kullanın.


METAR-TAF: